sensor_id;sensor_type;location;lat;lon;timestamp;temperature;humidity
57709;SHT35;42558;52.388;13.390;2022-07-09T00:02:13;14.24;80.46
57709;SHT35;42558;52.388;13.390;2022-07-09T00:04:40;14.26;79.96
57709;SHT35;42558;52.388;13.390;2022-07-09T00:07:07;14.20;80.27
57709;SHT35;42558;52.388;13.390;2022-07-09T00:09:34;14.17;80.51
57709;SHT35;42558;52.388;13.390;2022-07-09T00:12:01;14.17;80.36
57709;SHT35;42558;52.388;13.390;2022-07-09T00:14:28;14.23;79.89
57709;SHT35;42558;52.388;13.390;2022-07-09T00:16:56;14.26;79.36
57709;SHT35;42558;52.388;13.390;2022-07-09T00:19:23;14.23;78.90
57709;SHT35;42558;52.388;13.390;2022-07-09T00:21:50;14.20;78.74
57709;SHT35;42558;52.388;13.390;2022-07-09T00:24:17;14.20;78.60
57709;SHT35;42558;52.388;13.390;2022-07-09T00:26:43;14.21;78.42
57709;SHT35;42558;52.388;13.390;2022-07-09T00:29:10;14.19;78.29
57709;SHT35;42558;52.388;13.390;2022-07-09T00:31:37;14.16;78.32
57709;SHT35;42558;52.388;13.390;2022-07-09T00:34:04;14.12;78.38
57709;SHT35;42558;52.388;13.390;2022-07-09T00:36:31;14.11;78.42
57709;SHT35;42558;52.388;13.390;2022-07-09T00:38:58;14.16;78.67
57709;SHT35;42558;52.388;13.390;2022-07-09T00:41:25;14.23;78.19
57709;SHT35;42558;52.388;13.390;2022-07-09T00:43:51;14.21;77.91
57709;SHT35;42558;52.388;13.390;2022-07-09T00:46:18;14.13;78.24
57709;SHT35;42558;52.388;13.390;2022-07-09T00:48:45;14.09;78.50
57709;SHT35;42558;52.388;13.390;2022-07-09T00:51:13;14.06;78.41
57709;SHT35;42558;52.388;13.390;2022-07-09T00:53:43;13.98;78.64
57709;SHT35;42558;52.388;13.390;2022-07-09T00:56:12;13.89;79.28
57709;SHT35;42558;52.388;13.390;2022-07-09T00:58:41;13.79;79.48
57709;SHT35;42558;52.388;13.390;2022-07-09T01:01:11;13.70;79.98
57709;SHT35;42558;52.388;13.390;2022-07-09T01:03:39;13.67;80.04
57709;SHT35;42558;52.388;13.390;2022-07-09T01:06:06;13.67;80.23
57709;SHT35;42558;52.388;13.390;2022-07-09T01:08:33;13.65;79.92
57709;SHT35;42558;52.388;13.390;2022-07-09T01:11:01;13.59;80.17
57709;SHT35;42558;52.388;13.390;2022-07-09T01:13:28;13.56;80.28
57709;SHT35;42558;52.388;13.390;2022-07-09T01:15:55;13.59;80.33
57709;SHT35;42558;52.388;13.390;2022-07-09T01:18:22;13.64;79.78
57709;SHT35;42558;52.388;13.390;2022-07-09T01:20:50;13.65;79.64
57709;SHT35;42558;52.388;13.390;2022-07-09T01:23:18;13.55;79.67
57709;SHT35;42558;52.388;13.390;2022-07-09T01:25:45;13.50;79.88
57709;SHT35;42558;52.388;13.390;2022-07-09T01:28:13;13.49;80.14
57709;SHT35;42558;52.388;13.390;2022-07-09T01:30:40;13.49;79.92
57709;SHT35;42558;52.388;13.390;2022-07-09T01:33:08;13.47;79.99
57709;SHT35;42558;52.388;13.390;2022-07-09T01:35:35;13.48;80.09
57709;SHT35;42558;52.388;13.390;2022-07-09T01:38:02;13.48;80.03
57709;SHT35;42558;52.388;13.390;2022-07-09T01:40:29;13.42;79.73
57709;SHT35;42558;52.388;13.390;2022-07-09T01:42:56;13.26;80.41
57709;SHT35;42558;52.388;13.390;2022-07-09T01:45:23;13.19;81.17
57709;SHT35;42558;52.388;13.390;2022-07-09T01:47:50;13.22;81.07
57709;SHT35;42558;52.388;13.390;2022-07-09T01:50:17;13.19;81.04
57709;SHT35;42558;52.388;13.390;2022-07-09T01:52:45;13.11;81.24
57709;SHT35;42558;52.388;13.390;2022-07-09T01:55:12;12.98;81.86
57709;SHT35;42558;52.388;13.390;2022-07-09T01:57:39;12.93;82.51
57709;SHT35;42558;52.388;13.390;2022-07-09T02:00:06;12.93;82.59
57709;SHT35;42558;52.388;13.390;2022-07-09T02:02:34;12.96;82.56
57709;SHT35;42558;52.388;13.390;2022-07-09T02:05:01;12.95;82.58
57709;SHT35;42558;52.388;13.390;2022-07-09T02:07:28;12.98;82.62
57709;SHT35;42558;52.388;13.390;2022-07-09T02:09:55;12.96;82.43
57709;SHT35;42558;52.388;13.390;2022-07-09T02:12:22;12.95;82.54
57709;SHT35;42558;52.388;13.390;2022-07-09T02:14:49;12.96;82.36
57709;SHT35;42558;52.388;13.390;2022-07-09T02:17:16;12.93;82.26
57709;SHT35;42558;52.388;13.390;2022-07-09T02:19:43;12.90;82.40
57709;SHT35;42558;52.388;13.390;2022-07-09T02:22:09;12.94;82.29
57709;SHT35;42558;52.388;13.390;2022-07-09T02:24:36;13.01;82.15
57709;SHT35;42558;52.388;13.390;2022-07-09T02:27:03;12.95;81.96
57709;SHT35;42558;52.388;13.390;2022-07-09T02:29:31;12.82;82.42
57709;SHT35;42558;52.388;13.390;2022-07-09T02:31:58;12.74;82.87
57709;SHT35;42558;52.388;13.390;2022-07-09T02:34:25;12.68;83.34
57709;SHT35;42558;52.388;13.390;2022-07-09T02:36:52;12.66;83.76
57709;SHT35;42558;52.388;13.390;2022-07-09T02:39:18;12.66;83.87
57709;SHT35;42558;52.388;13.390;2022-07-09T02:41:45;12.79;83.60
57709;SHT35;42558;52.388;13.390;2022-07-09T02:44:12;12.89;83.07
57709;SHT35;42558;52.388;13.390;2022-07-09T02:46:39;12.95;82.90
57709;SHT35;42558;52.388;13.390;2022-07-09T02:49:07;13.00;82.97
57709;SHT35;42558;52.388;13.390;2022-07-09T02:51:33;13.02;82.82
57709;SHT35;42558;52.388;13.390;2022-07-09T02:54:00;13.03;82.71
57709;SHT35;42558;52.388;13.390;2022-07-09T02:56:27;13.02;82.70
57709;SHT35;42558;52.388;13.390;2022-07-09T02:58:53;13.03;82.39
57709;SHT35;42558;52.388;13.390;2022-07-09T03:01:20;13.07;82.30
57709;SHT35;42558;52.388;13.390;2022-07-09T03:03:47;13.13;82.36
57709;SHT35;42558;52.388;13.390;2022-07-09T03:06:14;13.10;82.40
57709;SHT35;42558;52.388;13.390;2022-07-09T03:08:41;13.12;82.48
57709;SHT35;42558;52.388;13.390;2022-07-09T03:11:08;13.13;82.26
57709;SHT35;42558;52.388;13.390;2022-07-09T03:13:35;13.14;82.23
57709;SHT35;42558;52.388;13.390;2022-07-09T03:16:03;13.19;82.28
57709;SHT35;42558;52.388;13.390;2022-07-09T03:18:31;13.22;82.34
57709;SHT35;42558;52.388;13.390;2022-07-09T03:20:59;13.26;82.16
57709;SHT35;42558;52.388;13.390;2022-07-09T03:23:26;13.25;82.32
57709;SHT35;42558;52.388;13.390;2022-07-09T03:25:53;13.26;82.43
57709;SHT35;42558;52.388;13.390;2022-07-09T03:28:19;13.24;82.42
57709;SHT35;42558;52.388;13.390;2022-07-09T03:30:46;13.23;82.42
57709;SHT35;42558;52.388;13.390;2022-07-09T03:33:13;13.27;82.25
57709;SHT35;42558;52.388;13.390;2022-07-09T03:35:40;13.26;82.09
57709;SHT35;42558;52.388;13.390;2022-07-09T03:38:07;13.24;82.33
57709;SHT35;42558;52.388;13.390;2022-07-09T03:40:34;13.27;82.31
57709;SHT35;42558;52.388;13.390;2022-07-09T03:43:00;13.30;82.27
57709;SHT35;42558;52.388;13.390;2022-07-09T03:45:27;13.30;82.18
57709;SHT35;42558;52.388;13.390;2022-07-09T03:47:54;13.29;82.28
57709;SHT35;42558;52.388;13.390;2022-07-09T03:50:21;13.31;82.33
57709;SHT35;42558;52.388;13.390;2022-07-09T03:52:48;13.34;82.33
57709;SHT35;42558;52.388;13.390;2022-07-09T03:55:16;13.38;82.22
57709;SHT35;42558;52.388;13.390;2022-07-09T03:57:44;13.39;81.98
57709;SHT35;42558;52.388;13.390;2022-07-09T04:00:10;13.40;81.09
57709;SHT35;42558;52.388;13.390;2022-07-09T04:02:38;13.45;80.87
57709;SHT35;42558;52.388;13.390;2022-07-09T04:05:06;13.49;80.83
57709;SHT35;42558;52.388;13.390;2022-07-09T04:07:35;13.53;80.69
57709;SHT35;42558;52.388;13.390;2022-07-09T04:10:03;13.57;80.59
57709;SHT35;42558;52.388;13.390;2022-07-09T04:12:31;13.61;80.53
57709;SHT35;42558;52.388;13.390;2022-07-09T04:14:57;13.64;80.06
57709;SHT35;42558;52.388;13.390;2022-07-09T04:17:24;13.67;79.44
57709;SHT35;42558;52.388;13.390;2022-07-09T04:19:51;13.71;79.17
57709;SHT35;42558;52.388;13.390;2022-07-09T04:22:18;13.75;78.78
57709;SHT35;42558;52.388;13.390;2022-07-09T04:24:45;13.78;78.47
57709;SHT35;42558;52.388;13.390;2022-07-09T04:27:11;13.78;78.31
57709;SHT35;42558;52.388;13.390;2022-07-09T04:29:38;13.80;78.48
57709;SHT35;42558;52.388;13.390;2022-07-09T04:32:05;13.83;78.33
57709;SHT35;42558;52.388;13.390;2022-07-09T04:34:33;13.85;77.70
57709;SHT35;42558;52.388;13.390;2022-07-09T04:36:59;13.88;77.65
57709;SHT35;42558;52.388;13.390;2022-07-09T04:39:27;13.91;77.57
57709;SHT35;42558;52.388;13.390;2022-07-09T04:41:54;13.92;77.39
57709;SHT35;42558;52.388;13.390;2022-07-09T04:44:21;13.96;77.43
57709;SHT35;42558;52.388;13.390;2022-07-09T04:46:47;13.98;77.44
57709;SHT35;42558;52.388;13.390;2022-07-09T04:49:14;14.02;77.57
57709;SHT35;42558;52.388;13.390;2022-07-09T04:51:41;14.01;77.49
57709;SHT35;42558;52.388;13.390;2022-07-09T04:54:08;14.04;77.79
57709;SHT35;42558;52.388;13.390;2022-07-09T04:56:35;14.07;77.86
57709;SHT35;42558;52.388;13.390;2022-07-09T04:59:02;14.11;77.85
57709;SHT35;42558;52.388;13.390;2022-07-09T05:01:29;14.13;77.83
57709;SHT35;42558;52.388;13.390;2022-07-09T05:03:57;14.14;77.84
57709;SHT35;42558;52.388;13.390;2022-07-09T05:06:25;14.16;78.00
57709;SHT35;42558;52.388;13.390;2022-07-09T05:08:52;14.22;78.05
57709;SHT35;42558;52.388;13.390;2022-07-09T05:11:18;14.23;77.99
57709;SHT35;42558;52.388;13.390;2022-07-09T05:13:45;14.21;78.20
57709;SHT35;42558;52.388;13.390;2022-07-09T05:16:15;14.26;78.23
57709;SHT35;42558;52.388;13.390;2022-07-09T05:18:42;14.29;78.30
57709;SHT35;42558;52.388;13.390;2022-07-09T05:21:09;14.32;78.45
57709;SHT35;42558;52.388;13.390;2022-07-09T05:23:36;14.30;78.51
57709;SHT35;42558;52.388;13.390;2022-07-09T05:26:04;14.32;78.59
57709;SHT35;42558;52.388;13.390;2022-07-09T05:28:31;14.38;78.62
57709;SHT35;42558;52.388;13.390;2022-07-09T05:30:59;14.36;78.61
57709;SHT35;42558;52.388;13.390;2022-07-09T05:33:46;14.40;78.82
57709;SHT35;42558;52.388;13.390;2022-07-09T05:36:15;14.45;78.72
57709;SHT35;42558;52.388;13.390;2022-07-09T05:38:44;14.52;78.55
57709;SHT35;42558;52.388;13.390;2022-07-09T05:41:12;14.58;78.62
57709;SHT35;42558;52.388;13.390;2022-07-09T05:43:40;14.63;78.32
57709;SHT35;42558;52.388;13.390;2022-07-09T05:46:08;14.74;78.38
57709;SHT35;42558;52.388;13.390;2022-07-09T05:48:35;14.96;78.16
57709;SHT35;42558;52.388;13.390;2022-07-09T05:51:03;15.10;77.03
57709;SHT35;42558;52.388;13.390;2022-07-09T05:53:30;15.14;76.69
57709;SHT35;42558;52.388;13.390;2022-07-09T05:55:57;15.24;76.58
57709;SHT35;42558;52.388;13.390;2022-07-09T05:58:23;15.18;76.25
57709;SHT35;42558;52.388;13.390;2022-07-09T06:00:50;15.13;76.23
57709;SHT35;42558;52.388;13.390;2022-07-09T06:03:18;15.13;76.37
57709;SHT35;42558;52.388;13.390;2022-07-09T06:05:45;15.33;76.47
57709;SHT35;42558;52.388;13.390;2022-07-09T06:08:12;15.36;75.60
57709;SHT35;42558;52.388;13.390;2022-07-09T06:10:39;15.35;75.92
57709;SHT35;42558;52.388;13.390;2022-07-09T06:13:06;15.51;76.32
57709;SHT35;42558;52.388;13.390;2022-07-09T06:15:33;15.69;75.53
57709;SHT35;42558;52.388;13.390;2022-07-09T06:17:59;15.78;74.80
57709;SHT35;42558;52.388;13.390;2022-07-09T06:20:27;15.73;74.34
57709;SHT35;42558;52.388;13.390;2022-07-09T06:22:54;15.75;74.67
57709;SHT35;42558;52.388;13.390;2022-07-09T06:25:21;15.83;74.72
57709;SHT35;42558;52.388;13.390;2022-07-09T06:27:48;16.02;74.36
57709;SHT35;42558;52.388;13.390;2022-07-09T06:30:15;16.28;74.02
57709;SHT35;42558;52.388;13.390;2022-07-09T06:32:42;16.45;73.15
57709;SHT35;42558;52.388;13.390;2022-07-09T06:35:08;16.32;72.47
57709;SHT35;42558;52.388;13.390;2022-07-09T06:37:35;16.18;72.83
57709;SHT35;42558;52.388;13.390;2022-07-09T06:40:03;16.07;73.43
57709;SHT35;42558;52.388;13.390;2022-07-09T06:42:32;16.02;73.51
57709;SHT35;42558;52.388;13.390;2022-07-09T06:45:01;16.06;73.76
57709;SHT35;42558;52.388;13.390;2022-07-09T06:47:28;16.14;73.38
57709;SHT35;42558;52.388;13.390;2022-07-09T06:49:54;16.25;73.28
57709;SHT35;42558;52.388;13.390;2022-07-09T06:52:21;16.39;73.03
57709;SHT35;42558;52.388;13.390;2022-07-09T06:54:48;16.51;72.78
57709;SHT35;42558;52.388;13.390;2022-07-09T06:57:15;16.56;72.00
57709;SHT35;42558;52.388;13.390;2022-07-09T06:59:44;16.47;72.09
57709;SHT35;42558;52.388;13.390;2022-07-09T07:02:13;16.49;72.07
57709;SHT35;42558;52.388;13.390;2022-07-09T07:04:42;16.64;72.25
57709;SHT35;42558;52.388;13.390;2022-07-09T07:07:10;16.75;71.83
57709;SHT35;42558;52.388;13.390;2022-07-09T07:09:36;16.87;71.38
57709;SHT35;42558;52.388;13.390;2022-07-09T07:12:04;16.94;71.43
57709;SHT35;42558;52.388;13.390;2022-07-09T07:14:33;17.19;71.16
57709;SHT35;42558;52.388;13.390;2022-07-09T07:17:00;17.53;70.00
57709;SHT35;42558;52.388;13.390;2022-07-09T07:19:27;17.58;68.32
57709;SHT35;42558;52.388;13.390;2022-07-09T07:21:53;17.48;69.01
57709;SHT35;42558;52.388;13.390;2022-07-09T07:24:21;17.39;68.88
57709;SHT35;42558;52.388;13.390;2022-07-09T07:26:47;17.35;69.24
57709;SHT35;42558;52.388;13.390;2022-07-09T07:29:14;17.22;68.94
57709;SHT35;42558;52.388;13.390;2022-07-09T07:31:41;17.08;69.81
57709;SHT35;42558;52.388;13.390;2022-07-09T07:34:08;17.10;70.28
57709;SHT35;42558;52.388;13.390;2022-07-09T07:36:35;17.29;69.78
57709;SHT35;42558;52.388;13.390;2022-07-09T07:39:02;17.34;69.13
57709;SHT35;42558;52.388;13.390;2022-07-09T07:41:29;17.29;69.08
57709;SHT35;42558;52.388;13.390;2022-07-09T07:43:56;17.35;69.48
57709;SHT35;42558;52.388;13.390;2022-07-09T07:46:23;17.50;68.94
57709;SHT35;42558;52.388;13.390;2022-07-09T07:48:50;17.60;69.27
57709;SHT35;42558;52.388;13.390;2022-07-09T07:51:17;17.69;67.71
57709;SHT35;42558;52.388;13.390;2022-07-09T07:53:44;17.54;67.86
57709;SHT35;42558;52.388;13.390;2022-07-09T07:56:11;17.51;68.40
57709;SHT35;42558;52.388;13.390;2022-07-09T07:58:38;17.56;69.01
57709;SHT35;42558;52.388;13.390;2022-07-09T08:01:04;17.52;68.58
57709;SHT35;42558;52.388;13.390;2022-07-09T08:03:31;17.35;69.51
57709;SHT35;42558;52.388;13.390;2022-07-09T08:05:59;17.40;69.66
57709;SHT35;42558;52.388;13.390;2022-07-09T08:08:27;17.54;69.54
57709;SHT35;42558;52.388;13.390;2022-07-09T08:10:54;17.69;68.24
57709;SHT35;42558;52.388;13.390;2022-07-09T08:13:21;17.85;68.61
57709;SHT35;42558;52.388;13.390;2022-07-09T08:15:48;17.89;68.42
57709;SHT35;42558;52.388;13.390;2022-07-09T08:18:15;17.86;68.36
57709;SHT35;42558;52.388;13.390;2022-07-09T08:20:42;17.86;69.01
57709;SHT35;42558;52.388;13.390;2022-07-09T08:23:09;17.73;68.82
57709;SHT35;42558;52.388;13.390;2022-07-09T08:25:37;17.60;68.91
57709;SHT35;42558;52.388;13.390;2022-07-09T08:28:04;17.47;69.62
57709;SHT35;42558;52.388;13.390;2022-07-09T08:30:31;17.39;70.05
57709;SHT35;42558;52.388;13.390;2022-07-09T08:32:59;17.24;70.36
57709;SHT35;42558;52.388;13.390;2022-07-09T08:35:26;17.30;70.69
57709;SHT35;42558;52.388;13.390;2022-07-09T08:37:53;17.49;70.46
57709;SHT35;42558;52.388;13.390;2022-07-09T08:40:21;17.69;70.35
57709;SHT35;42558;52.388;13.390;2022-07-09T08:42:51;17.81;70.29
57709;SHT35;42558;52.388;13.390;2022-07-09T08:45:20;17.84;68.96
57709;SHT35;42558;52.388;13.390;2022-07-09T08:47:49;17.91;69.42
57709;SHT35;42558;52.388;13.390;2022-07-09T08:50:19;17.89;68.74
57709;SHT35;42558;52.388;13.390;2022-07-09T08:52:47;17.98;68.93
57709;SHT35;42558;52.388;13.390;2022-07-09T08:55:18;18.03;68.57
57709;SHT35;42558;52.388;13.390;2022-07-09T08:57:45;17.96;68.59
57709;SHT35;42558;52.388;13.390;2022-07-09T09:00:12;17.90;69.11
57709;SHT35;42558;52.388;13.390;2022-07-09T09:02:39;17.94;69.14
57709;SHT35;42558;52.388;13.390;2022-07-09T09:05:13;18.10;68.98
57709;SHT35;42558;52.388;13.390;2022-07-09T09:07:42;18.31;67.39
57709;SHT35;42558;52.388;13.390;2022-07-09T09:10:31;18.51;67.42
57709;SHT35;42558;52.388;13.390;2022-07-09T09:12:59;18.42;67.78
57709;SHT35;42558;52.388;13.390;2022-07-09T09:15:28;18.59;67.77
57709;SHT35;42558;52.388;13.390;2022-07-09T09:17:56;18.38;67.94
57709;SHT35;42558;52.388;13.390;2022-07-09T09:20:24;18.35;68.21
57709;SHT35;42558;52.388;13.390;2022-07-09T09:22:51;18.33;68.46
57709;SHT35;42558;52.388;13.390;2022-07-09T09:25:26;18.35;68.40
57709;SHT35;42558;52.388;13.390;2022-07-09T09:27:54;18.26;68.94
57709;SHT35;42558;52.388;13.390;2022-07-09T09:30:24;18.04;68.88
57709;SHT35;42558;52.388;13.390;2022-07-09T09:35:32;17.68;70.74
57709;SHT35;42558;52.388;13.390;2022-07-09T09:38:00;17.49;71.97
57709;SHT35;42558;52.388;13.390;2022-07-09T09:40:27;17.42;72.39
57709;SHT35;42558;52.388;13.390;2022-07-09T09:42:54;17.44;72.63
57709;SHT35;42558;52.388;13.390;2022-07-09T09:45:28;17.42;73.22
57709;SHT35;42558;52.388;13.390;2022-07-09T09:47:55;17.32;73.77
57709;SHT35;42558;52.388;13.390;2022-07-09T09:50:26;17.32;74.31
57709;SHT35;42558;52.388;13.390;2022-07-09T09:52:54;17.28;74.55
57709;SHT35;42558;52.388;13.390;2022-07-09T09:55:21;17.17;74.40
57709;SHT35;42558;52.388;13.390;2022-07-09T09:57:49;17.13;74.42
57709;SHT35;42558;52.388;13.390;2022-07-09T10:00:18;17.05;74.86
57709;SHT35;42558;52.388;13.390;2022-07-09T10:02:46;16.82;76.92
57709;SHT35;42558;52.388;13.390;2022-07-09T10:05:14;16.73;78.35
57709;SHT35;42558;52.388;13.390;2022-07-09T10:07:41;16.89;78.52
57709;SHT35;42558;52.388;13.390;2022-07-09T10:10:20;17.23;78.51
57709;SHT35;42558;52.388;13.390;2022-07-09T10:12:48;17.49;77.71
57709;SHT35;42558;52.388;13.390;2022-07-09T10:15:25;17.63;76.37
57709;SHT35;42558;52.388;13.390;2022-07-09T10:17:54;17.81;75.12
57709;SHT35;42558;52.388;13.390;2022-07-09T10:20:33;17.90;72.98
57709;SHT35;42558;52.388;13.390;2022-07-09T10:23:02;18.08;72.23
57709;SHT35;42558;52.388;13.390;2022-07-09T10:25:30;18.29;71.42
57709;SHT35;42558;52.388;13.390;2022-07-09T10:28:16;18.43;71.04
57709;SHT35;42558;52.388;13.390;2022-07-09T10:30:46;18.61;70.24
57709;SHT35;42558;52.388;13.390;2022-07-09T10:33:33;18.45;69.68
57709;SHT35;42558;52.388;13.390;2022-07-09T10:36:12;18.33;69.84
57709;SHT35;42558;52.388;13.390;2022-07-09T10:38:51;18.35;70.19
57709;SHT35;42558;52.388;13.390;2022-07-09T10:41:22;18.60;69.92
57709;SHT35;42558;52.388;13.390;2022-07-09T10:43:50;18.72;68.35
57709;SHT35;42558;52.388;13.390;2022-07-09T10:46:18;18.69;68.26
57709;SHT35;42558;52.388;13.390;2022-07-09T10:48:47;18.99;67.51
57709;SHT35;42558;52.388;13.390;2022-07-09T10:51:17;19.34;66.29
57709;SHT35;42558;52.388;13.390;2022-07-09T10:53:49;19.85;65.42
57709;SHT35;42558;52.388;13.390;2022-07-09T10:56:20;20.18;64.44
57709;SHT35;42558;52.388;13.390;2022-07-09T10:58:48;20.39;63.43
57709;SHT35;42558;52.388;13.390;2022-07-09T11:01:20;20.60;62.56
57709;SHT35;42558;52.388;13.390;2022-07-09T11:03:51;20.39;62.36
57709;SHT35;42558;52.388;13.390;2022-07-09T11:06:20;20.33;61.71
57709;SHT35;42558;52.388;13.390;2022-07-09T11:08:47;20.53;60.78
57709;SHT35;42558;52.388;13.390;2022-07-09T11:11:21;20.76;60.68
57709;SHT35;42558;52.388;13.390;2022-07-09T11:13:50;20.74;60.77
57709;SHT35;42558;52.388;13.390;2022-07-09T11:16:24;20.44;61.19
57709;SHT35;42558;52.388;13.390;2022-07-09T11:18:53;20.57;61.31
57709;SHT35;42558;52.388;13.390;2022-07-09T11:21:24;20.60;60.36
57709;SHT35;42558;52.388;13.390;2022-07-09T11:23:52;20.56;60.93
57709;SHT35;42558;52.388;13.390;2022-07-09T11:26:20;20.53;60.80
57709;SHT35;42558;52.388;13.390;2022-07-09T11:28:47;20.56;60.89
57709;SHT35;42558;52.388;13.390;2022-07-09T11:31:14;20.73;60.54
57709;SHT35;42558;52.388;13.390;2022-07-09T11:33:44;20.93;60.04
57709;SHT35;42558;52.388;13.390;2022-07-09T11:36:48;21.08;59.83
57709;SHT35;42558;52.388;13.390;2022-07-09T11:41:54;20.72;58.73
57709;SHT35;42558;52.388;13.390;2022-07-09T11:44:23;20.59;59.63
57709;SHT35;42558;52.388;13.390;2022-07-09T11:49:49;21.01;58.02
57709;SHT35;42558;52.388;13.390;2022-07-09T11:57:25;20.84;58.80
57709;SHT35;42558;52.388;13.390;2022-07-09T11:59:54;20.95;59.43
57709;SHT35;42558;52.388;13.390;2022-07-09T12:02:24;21.01;59.34
57709;SHT35;42558;52.388;13.390;2022-07-09T12:05:06;20.85;59.32
57709;SHT35;42558;52.388;13.390;2022-07-09T12:07:35;20.57;59.59
57709;SHT35;42558;52.388;13.390;2022-07-09T12:10:03;20.51;60.00
57709;SHT35;42558;52.388;13.390;2022-07-09T12:12:37;20.47;60.13
57709;SHT35;42558;52.388;13.390;2022-07-09T12:15:05;20.67;60.26
57709;SHT35;42558;52.388;13.390;2022-07-09T12:17:34;20.98;59.74
57709;SHT35;42558;52.388;13.390;2022-07-09T12:20:05;21.46;56.86
57709;SHT35;42558;52.388;13.390;2022-07-09T12:22:34;21.49;57.29
57709;SHT35;42558;52.388;13.390;2022-07-09T12:25:00;21.23;57.49
57709;SHT35;42558;52.388;13.390;2022-07-09T12:27:27;21.28;57.87
57709;SHT35;42558;52.388;13.390;2022-07-09T12:29:54;21.45;57.32
57709;SHT35;42558;52.388;13.390;2022-07-09T12:32:21;21.34;56.56
57709;SHT35;42558;52.388;13.390;2022-07-09T12:34:48;21.42;57.49
57709;SHT35;42558;52.388;13.390;2022-07-09T12:37:15;21.60;56.52
57709;SHT35;42558;52.388;13.390;2022-07-09T12:39:41;21.45;55.93
57709;SHT35;42558;52.388;13.390;2022-07-09T12:42:16;21.29;56.50
57709;SHT35;42558;52.388;13.390;2022-07-09T12:44:44;21.24;57.25
57709;SHT35;42558;52.388;13.390;2022-07-09T12:47:12;21.19;57.82
57709;SHT35;42558;52.388;13.390;2022-07-09T12:49:39;21.19;57.97
57709;SHT35;42558;52.388;13.390;2022-07-09T12:52:06;21.06;58.24
57709;SHT35;42558;52.388;13.390;2022-07-09T12:54:33;20.96;58.56
57709;SHT35;42558;52.388;13.390;2022-07-09T12:57:00;20.80;59.05
57709;SHT35;42558;52.388;13.390;2022-07-09T12:59:34;20.58;58.59
57709;SHT35;42558;52.388;13.390;2022-07-09T13:02:01;20.21;60.50
57709;SHT35;42558;52.388;13.390;2022-07-09T13:04:29;19.56;66.56
57709;SHT35;42558;52.388;13.390;2022-07-09T13:06:56;18.69;71.24
57709;SHT35;42558;52.388;13.390;2022-07-09T13:09:24;18.59;73.12
57709;SHT35;42558;52.388;13.390;2022-07-09T13:11:51;18.65;73.93
57709;SHT35;42558;52.388;13.390;2022-07-09T13:14:18;18.79;72.94
57709;SHT35;42558;52.388;13.390;2022-07-09T13:16:45;18.88;73.18
57709;SHT35;42558;52.388;13.390;2022-07-09T13:19:32;19.08;73.07
57709;SHT35;42558;52.388;13.390;2022-07-09T13:21:59;19.10;72.60
57709;SHT35;42558;52.388;13.390;2022-07-09T13:24:25;19.25;73.62
57709;SHT35;42558;52.388;13.390;2022-07-09T13:26:52;19.49;72.87
57709;SHT35;42558;52.388;13.390;2022-07-09T13:29:19;19.72;74.24
57709;SHT35;42558;52.388;13.390;2022-07-09T13:31:46;19.84;72.85
57709;SHT35;42558;52.388;13.390;2022-07-09T13:34:13;19.72;72.41
57709;SHT35;42558;52.388;13.390;2022-07-09T13:36:40;19.73;72.26
57709;SHT35;42558;52.388;13.390;2022-07-09T13:39:07;19.73;73.24
57709;SHT35;42558;52.388;13.390;2022-07-09T13:41:34;19.75;71.68
57709;SHT35;42558;52.388;13.390;2022-07-09T13:44:01;19.67;71.83
57709;SHT35;42558;52.388;13.390;2022-07-09T13:46:28;19.58;71.51
57709;SHT35;42558;52.388;13.390;2022-07-09T13:48:55;19.61;71.85
57709;SHT35;42558;52.388;13.390;2022-07-09T13:51:22;19.70;70.75
57709;SHT35;42558;52.388;13.390;2022-07-09T13:53:49;19.72;70.41
57709;SHT35;42558;52.388;13.390;2022-07-09T13:56:16;19.83;70.14
57709;SHT35;42558;52.388;13.390;2022-07-09T13:58:46;20.03;70.61
57709;SHT35;42558;52.388;13.390;2022-07-09T14:01:13;20.36;70.44
57709;SHT35;42558;52.388;13.390;2022-07-09T14:03:41;20.59;68.40
57709;SHT35;42558;52.388;13.390;2022-07-09T14:06:08;20.43;67.99
57709;SHT35;42558;52.388;13.390;2022-07-09T14:08:56;20.62;68.48
57709;SHT35;42558;52.388;13.390;2022-07-09T14:11:24;20.71;66.59
57709;SHT35;42558;52.388;13.390;2022-07-09T14:13:51;20.71;66.74
57709;SHT35;42558;52.388;13.390;2022-07-09T14:16:20;20.65;66.46
57709;SHT35;42558;52.388;13.390;2022-07-09T14:18:47;20.47;66.87
57709;SHT35;42558;52.388;13.390;2022-07-09T14:21:13;20.36;66.90
57709;SHT35;42558;52.388;13.390;2022-07-09T14:23:40;20.18;67.48
57709;SHT35;42558;52.388;13.390;2022-07-09T14:26:08;20.08;67.87
57709;SHT35;42558;52.388;13.390;2022-07-09T14:28:35;19.93;68.30
57709;SHT35;42558;52.388;13.390;2022-07-09T14:31:02;19.71;66.99
57709;SHT35;42558;52.388;13.390;2022-07-09T14:33:29;19.50;66.78
57709;SHT35;42558;52.388;13.390;2022-07-09T14:35:56;19.27;66.88
57709;SHT35;42558;52.388;13.390;2022-07-09T14:38:24;19.22;67.25
57709;SHT35;42558;52.388;13.390;2022-07-09T14:40:51;19.13;67.36
57709;SHT35;42558;52.388;13.390;2022-07-09T14:43:18;19.02;69.16
57709;SHT35;42558;52.388;13.390;2022-07-09T14:45:45;18.91;70.80
57709;SHT35;42558;52.388;13.390;2022-07-09T14:48:12;18.91;72.10
57709;SHT35;42558;52.388;13.390;2022-07-09T14:50:40;18.92;71.74
57709;SHT35;42558;52.388;13.390;2022-07-09T14:53:07;18.91;71.65
57709;SHT35;42558;52.388;13.390;2022-07-09T14:55:34;18.90;72.64
57709;SHT35;42558;52.388;13.390;2022-07-09T14:58:02;19.13;71.40
57709;SHT35;42558;52.388;13.390;2022-07-09T15:00:29;19.18;69.34
57709;SHT35;42558;52.388;13.390;2022-07-09T15:02:56;19.34;67.94
57709;SHT35;42558;52.388;13.390;2022-07-09T15:05:24;19.84;65.86
57709;SHT35;42558;52.388;13.390;2022-07-09T15:07:51;20.57;63.55
57709;SHT35;42558;52.388;13.390;2022-07-09T15:10:18;20.34;62.60
57709;SHT35;42558;52.388;13.390;2022-07-09T15:12:44;20.14;62.83
57709;SHT35;42558;52.388;13.390;2022-07-09T15:15:11;20.10;63.57
57709;SHT35;42558;52.388;13.390;2022-07-09T15:17:38;20.17;63.77
57709;SHT35;42558;52.388;13.390;2022-07-09T15:24:35;19.99;64.71
57709;SHT35;42558;52.388;13.390;2022-07-09T15:27:02;19.89;65.51
57709;SHT35;42558;52.388;13.390;2022-07-09T15:29:29;19.83;65.30
57709;SHT35;42558;52.388;13.390;2022-07-09T15:31:59;19.77;65.99
57709;SHT35;42558;52.388;13.390;2022-07-09T15:34:26;19.76;66.55
57709;SHT35;42558;52.388;13.390;2022-07-09T15:36:53;19.79;65.77
57709;SHT35;42558;52.388;13.390;2022-07-09T15:39:19;19.79;65.03